sensor_id;sensor_type;location;lat;lon;timestamp;temperature;humidity
13928;DHT22;7036;50.834;4.718;2023-06-04T00:02:23;22.60;44.00
13928;DHT22;7036;50.834;4.718;2023-06-04T00:04:54;22.60;44.00
13928;DHT22;7036;50.834;4.718;2023-06-04T00:07:21;22.60;44.10
13928;DHT22;7036;50.834;4.718;2023-06-04T00:09:48;22.60;44.10
13928;DHT22;7036;50.834;4.718;2023-06-04T00:12:15;22.60;44.10
13928;DHT22;7036;50.834;4.718;2023-06-04T00:14:42;22.50;44.00
13928;DHT22;7036;50.834;4.718;2023-06-04T00:17:09;22.50;44.10
13928;DHT22;7036;50.834;4.718;2023-06-04T00:19:37;22.50;44.00
13928;DHT22;7036;50.834;4.718;2023-06-04T00:22:03;22.50;44.10
13928;DHT22;7036;50.834;4.718;2023-06-04T00:24:30;22.50;44.10
13928;DHT22;7036;50.834;4.718;2023-06-04T00:26:57;22.50;44.10
13928;DHT22;7036;50.834;4.718;2023-06-04T00:29:28;22.50;44.10
13928;DHT22;7036;50.834;4.718;2023-06-04T00:31:58;22.50;44.10
13928;DHT22;7036;50.834;4.718;2023-06-04T00:34:23;22.50;44.10
13928;DHT22;7036;50.834;4.718;2023-06-04T00:36:51;22.50;44.30
13928;DHT22;7036;50.834;4.718;2023-06-04T00:39:18;22.50;44.20
13928;DHT22;7036;50.834;4.718;2023-06-04T00:41:45;22.50;44.20
13928;DHT22;7036;50.834;4.718;2023-06-04T00:44:14;22.50;44.20
13928;DHT22;7036;50.834;4.718;2023-06-04T00:46:41;22.50;44.20
13928;DHT22;7036;50.834;4.718;2023-06-04T00:49:09;22.50;44.40
13928;DHT22;7036;50.834;4.718;2023-06-04T00:51:42;22.50;44.00
13928;DHT22;7036;50.834;4.718;2023-06-04T00:54:09;22.50;44.30
13928;DHT22;7036;50.834;4.718;2023-06-04T00:56:38;22.50;44.30
13928;DHT22;7036;50.834;4.718;2023-06-04T00:59:05;22.50;44.30
13928;DHT22;7036;50.834;4.718;2023-06-04T01:04:00;22.50;44.40
13928;DHT22;7036;50.834;4.718;2023-06-04T01:06:31;22.50;44.40
13928;DHT22;7036;50.834;4.718;2023-06-04T01:08:59;22.50;44.30
13928;DHT22;7036;50.834;4.718;2023-06-04T01:11:32;22.40;44.90
13928;DHT22;7036;50.834;4.718;2023-06-04T01:13:58;22.40;44.30
13928;DHT22;7036;50.834;4.718;2023-06-04T01:16:26;22.40;44.30
13928;DHT22;7036;50.834;4.718;2023-06-04T01:18:52;22.40;44.30
13928;DHT22;7036;50.834;4.718;2023-06-04T01:21:19;22.40;44.30
13928;DHT22;7036;50.834;4.718;2023-06-04T01:23:49;22.40;44.30
13928;DHT22;7036;50.834;4.718;2023-06-04T01:26:16;22.40;44.40
13928;DHT22;7036;50.834;4.718;2023-06-04T01:28:43;22.40;44.50
13928;DHT22;7036;50.834;4.718;2023-06-04T01:31:11;22.40;44.50
13928;DHT22;7036;50.834;4.718;2023-06-04T01:33:40;22.40;45.20
13928;DHT22;7036;50.834;4.718;2023-06-04T01:36:07;22.40;44.40
13928;DHT22;7036;50.834;4.718;2023-06-04T01:38:33;22.40;44.50
13928;DHT22;7036;50.834;4.718;2023-06-04T01:41:07;22.40;44.40
13928;DHT22;7036;50.834;4.718;2023-06-04T01:43:34;22.40;44.60
13928;DHT22;7036;50.834;4.718;2023-06-04T01:46:01;22.40;44.40
13928;DHT22;7036;50.834;4.718;2023-06-04T01:48:28;22.30;44.50
13928;DHT22;7036;50.834;4.718;2023-06-04T01:50:58;22.40;44.50
13928;DHT22;7036;50.834;4.718;2023-06-04T01:53:22;22.40;44.50
13928;DHT22;7036;50.834;4.718;2023-06-04T01:55:50;22.30;44.60
13928;DHT22;7036;50.834;4.718;2023-06-04T01:58:16;22.30;44.50
13928;DHT22;7036;50.834;4.718;2023-06-04T02:00:49;22.30;44.60
13928;DHT22;7036;50.834;4.718;2023-06-04T02:03:23;22.30;44.60
13928;DHT22;7036;50.834;4.718;2023-06-04T02:05:49;22.30;44.50
13928;DHT22;7036;50.834;4.718;2023-06-04T02:08:18;22.30;44.50
13928;DHT22;7036;50.834;4.718;2023-06-04T02:10:48;22.30;44.50
13928;DHT22;7036;50.834;4.718;2023-06-04T02:13:15;22.30;44.50
13928;DHT22;7036;50.834;4.718;2023-06-04T02:15:43;22.30;44.50
13928;DHT22;7036;50.834;4.718;2023-06-04T02:18:16;22.30;44.50
13928;DHT22;7036;50.834;4.718;2023-06-04T02:20:45;22.30;44.50
13928;DHT22;7036;50.834;4.718;2023-06-04T02:23:12;22.30;44.60
13928;DHT22;7036;50.834;4.718;2023-06-04T02:25:38;22.30;44.00
13928;DHT22;7036;50.834;4.718;2023-06-04T02:28:10;22.30;44.70
13928;DHT22;7036;50.834;4.718;2023-06-04T02:30:37;22.30;44.60
13928;DHT22;7036;50.834;4.718;2023-06-04T02:33:04;22.30;44.60
13928;DHT22;7036;50.834;4.718;2023-06-04T02:35:31;22.30;44.60
13928;DHT22;7036;50.834;4.718;2023-06-04T02:37:58;22.30;44.60
13928;DHT22;7036;50.834;4.718;2023-06-04T02:40:25;22.30;44.60
13928;DHT22;7036;50.834;4.718;2023-06-04T02:42:55;22.30;44.60
13928;DHT22;7036;50.834;4.718;2023-06-04T02:45:24;22.30;44.70
13928;DHT22;7036;50.834;4.718;2023-06-04T02:47:55;22.30;44.80
13928;DHT22;7036;50.834;4.718;2023-06-04T02:50:22;22.30;44.70
13928;DHT22;7036;50.834;4.718;2023-06-04T02:52:49;22.30;44.70
13928;DHT22;7036;50.834;4.718;2023-06-04T02:55:25;22.20;44.60
13928;DHT22;7036;50.834;4.718;2023-06-04T02:57:46;22.30;44.70
13928;DHT22;7036;50.834;4.718;2023-06-04T03:00:11;22.30;44.70
13928;DHT22;7036;50.834;4.718;2023-06-04T03:02:43;22.30;44.70
13928;DHT22;7036;50.834;4.718;2023-06-04T03:05:08;22.20;44.60
13928;DHT22;7036;50.834;4.718;2023-06-04T03:07:37;22.20;44.60
13928;DHT22;7036;50.834;4.718;2023-06-04T03:10:01;22.20;44.70
13928;DHT22;7036;50.834;4.718;2023-06-04T03:12:29;22.20;44.90
13928;DHT22;7036;50.834;4.718;2023-06-04T03:14:56;22.20;44.70
13928;DHT22;7036;50.834;4.718;2023-06-04T03:17:26;22.20;44.90
13928;DHT22;7036;50.834;4.718;2023-06-04T03:19:59;22.20;45.40
13928;DHT22;7036;50.834;4.718;2023-06-04T03:22:29;22.20;44.70
13928;DHT22;7036;50.834;4.718;2023-06-04T03:24:56;22.20;44.80
13928;DHT22;7036;50.834;4.718;2023-06-04T03:27:23;22.20;44.80
13928;DHT22;7036;50.834;4.718;2023-06-04T03:29:52;22.20;44.80
13928;DHT22;7036;50.834;4.718;2023-06-04T03:32:19;22.20;44.80
13928;DHT22;7036;50.834;4.718;2023-06-04T03:34:46;22.20;44.80
13928;DHT22;7036;50.834;4.718;2023-06-04T03:37:14;22.20;44.80
13928;DHT22;7036;50.834;4.718;2023-06-04T03:39:41;22.20;44.80
13928;DHT22;7036;50.834;4.718;2023-06-04T03:42:07;22.20;44.80
13928;DHT22;7036;50.834;4.718;2023-06-04T03:44:34;22.20;44.90
13928;DHT22;7036;50.834;4.718;2023-06-04T03:47:04;22.20;44.80
13928;DHT22;7036;50.834;4.718;2023-06-04T03:49:35;22.20;44.90
13928;DHT22;7036;50.834;4.718;2023-06-04T03:52:02;22.20;44.90
13928;DHT22;7036;50.834;4.718;2023-06-04T03:54:28;22.20;44.90
13928;DHT22;7036;50.834;4.718;2023-06-04T03:56:58;22.20;44.90
13928;DHT22;7036;50.834;4.718;2023-06-04T03:59:28;22.20;44.90
13928;DHT22;7036;50.834;4.718;2023-06-04T04:01:56;22.20;44.90
13928;DHT22;7036;50.834;4.718;2023-06-04T04:04:23;22.20;44.90
13928;DHT22;7036;50.834;4.718;2023-06-04T04:06:50;22.20;45.10
13928;DHT22;7036;50.834;4.718;2023-06-04T04:09:17;22.10;44.90
13928;DHT22;7036;50.834;4.718;2023-06-04T04:11:47;22.10;45.00
13928;DHT22;7036;50.834;4.718;2023-06-04T04:14:14;22.20;44.40
13928;DHT22;7036;50.834;4.718;2023-06-04T04:16:42;22.10;45.10
13928;DHT22;7036;50.834;4.718;2023-06-04T04:19:09;22.10;45.10
13928;DHT22;7036;50.834;4.718;2023-06-04T04:21:36;22.10;45.00
13928;DHT22;7036;50.834;4.718;2023-06-04T04:24:05;22.10;45.00
13928;DHT22;7036;50.834;4.718;2023-06-04T04:26:35;22.10;45.00
13928;DHT22;7036;50.834;4.718;2023-06-04T04:29:02;22.10;45.00
13928;DHT22;7036;50.834;4.718;2023-06-04T04:31:29;22.10;45.00
13928;DHT22;7036;50.834;4.718;2023-06-04T04:33:55;22.10;45.10
13928;DHT22;7036;50.834;4.718;2023-06-04T04:36:22;22.10;45.10
13928;DHT22;7036;50.834;4.718;2023-06-04T04:38:49;22.10;45.10
13928;DHT22;7036;50.834;4.718;2023-06-04T04:41:16;22.10;45.10
13928;DHT22;7036;50.834;4.718;2023-06-04T04:43:47;22.10;45.30
13928;DHT22;7036;50.834;4.718;2023-06-04T04:46:11;22.10;45.20
13928;DHT22;7036;50.834;4.718;2023-06-04T04:48:40;22.10;45.20
13928;DHT22;7036;50.834;4.718;2023-06-04T04:51:07;22.10;45.20
13928;DHT22;7036;50.834;4.718;2023-06-04T04:53:34;22.10;45.20
13928;DHT22;7036;50.834;4.718;2023-06-04T04:56:01;22.10;45.20
13928;DHT22;7036;50.834;4.718;2023-06-04T04:58:29;22.10;45.40
13928;DHT22;7036;50.834;4.718;2023-06-04T05:00:56;22.10;45.30
13928;DHT22;7036;50.834;4.718;2023-06-04T05:03:23;22.10;45.30
13928;DHT22;7036;50.834;4.718;2023-06-04T05:05:53;22.10;45.30
13928;DHT22;7036;50.834;4.718;2023-06-04T05:08:17;22.20;45.40
13928;DHT22;7036;50.834;4.718;2023-06-04T05:10:44;22.10;45.40
13928;DHT22;7036;50.834;4.718;2023-06-04T05:13:17;22.10;45.40
13928;DHT22;7036;50.834;4.718;2023-06-04T05:15:44;22.10;45.40
13928;DHT22;7036;50.834;4.718;2023-06-04T05:18:11;22.10;45.40
13928;DHT22;7036;50.834;4.718;2023-06-04T05:20:41;22.10;45.40
13928;DHT22;7036;50.834;4.718;2023-06-04T05:23:07;22.10;45.40
13928;DHT22;7036;50.834;4.718;2023-06-04T05:25:35;22.10;45.40
13928;DHT22;7036;50.834;4.718;2023-06-04T05:28:01;22.10;45.50
13928;DHT22;7036;50.834;4.718;2023-06-04T05:30:28;22.10;45.50
13928;DHT22;7036;50.834;4.718;2023-06-04T05:32:56;22.10;45.70
13928;DHT22;7036;50.834;4.718;2023-06-04T05:35:23;22.10;45.50
13928;DHT22;7036;50.834;4.718;2023-06-04T05:37:50;22.10;45.60
13928;DHT22;7036;50.834;4.718;2023-06-04T05:40:25;22.10;45.70
13928;DHT22;7036;50.834;4.718;2023-06-04T05:42:51;22.10;45.60
13928;DHT22;7036;50.834;4.718;2023-06-04T05:45:18;22.10;46.20
13928;DHT22;7036;50.834;4.718;2023-06-04T05:47:45;22.10;45.60
13928;DHT22;7036;50.834;4.718;2023-06-04T05:50:12;22.10;45.60
13928;DHT22;7036;50.834;4.718;2023-06-04T05:52:39;22.10;45.70
13928;DHT22;7036;50.834;4.718;2023-06-04T05:55:09;22.10;45.70
13928;DHT22;7036;50.834;4.718;2023-06-04T05:57:36;22.20;45.80
13928;DHT22;7036;50.834;4.718;2023-06-04T06:00:06;22.20;45.70
13928;DHT22;7036;50.834;4.718;2023-06-04T06:02:32;22.20;45.90
13928;DHT22;7036;50.834;4.718;2023-06-04T06:04:59;22.20;45.90
13928;DHT22;7036;50.834;4.718;2023-06-04T06:07:27;22.20;46.00
13928;DHT22;7036;50.834;4.718;2023-06-04T06:09:55;22.30;46.30
13928;DHT22;7036;50.834;4.718;2023-06-04T06:12:25;22.30;46.10
13928;DHT22;7036;50.834;4.718;2023-06-04T06:14:52;22.30;46.30
13928;DHT22;7036;50.834;4.718;2023-06-04T06:17:19;22.30;46.20
13928;DHT22;7036;50.834;4.718;2023-06-04T06:19:46;22.30;46.20
13928;DHT22;7036;50.834;4.718;2023-06-04T06:22:13;22.40;46.30
13928;DHT22;7036;50.834;4.718;2023-06-04T06:24:42;22.40;46.30
13928;DHT22;7036;50.834;4.718;2023-06-04T06:27:12;22.40;46.20
13928;DHT22;7036;50.834;4.718;2023-06-04T06:29:39;22.50;46.30
13928;DHT22;7036;50.834;4.718;2023-06-04T06:32:06;22.50;46.30
13928;DHT22;7036;50.834;4.718;2023-06-04T06:34:34;22.50;46.40
13928;DHT22;7036;50.834;4.718;2023-06-04T06:37:00;22.50;46.20
13928;DHT22;7036;50.834;4.718;2023-06-04T06:39:30;22.50;46.30
13928;DHT22;7036;50.834;4.718;2023-06-04T06:41:57;22.60;46.30
13928;DHT22;7036;50.834;4.718;2023-06-04T06:44:25;22.60;46.50
13928;DHT22;7036;50.834;4.718;2023-06-04T06:46:51;22.60;46.30
13928;DHT22;7036;50.834;4.718;2023-06-04T06:49:18;22.60;46.30
13928;DHT22;7036;50.834;4.718;2023-06-04T06:51:46;22.60;46.30
13928;DHT22;7036;50.834;4.718;2023-06-04T06:54:16;22.60;46.30
13928;DHT22;7036;50.834;4.718;2023-06-04T06:56:43;22.70;46.40
13928;DHT22;7036;50.834;4.718;2023-06-04T06:59:11;22.70;46.40
13928;DHT22;7036;50.834;4.718;2023-06-04T07:01:39;22.70;46.40
13928;DHT22;7036;50.834;4.718;2023-06-04T07:04:06;22.70;46.40
13928;DHT22;7036;50.834;4.718;2023-06-04T07:06:34;22.70;46.40
13928;DHT22;7036;50.834;4.718;2023-06-04T07:09:01;22.80;46.50
13928;DHT22;7036;50.834;4.718;2023-06-04T07:11:28;22.80;46.40
13928;DHT22;7036;50.834;4.718;2023-06-04T07:13:55;22.80;46.40
13928;DHT22;7036;50.834;4.718;2023-06-04T07:16:22;22.80;46.40
13928;DHT22;7036;50.834;4.718;2023-06-04T07:18:49;22.80;46.40
13928;DHT22;7036;50.834;4.718;2023-06-04T07:21:16;22.80;46.30
13928;DHT22;7036;50.834;4.718;2023-06-04T07:23:43;22.80;46.30
13928;DHT22;7036;50.834;4.718;2023-06-04T07:26:10;22.80;46.10
13928;DHT22;7036;50.834;4.718;2023-06-04T07:28:37;22.80;46.10
13928;DHT22;7036;50.834;4.718;2023-06-04T07:31:05;22.80;46.20
13928;DHT22;7036;50.834;4.718;2023-06-04T07:33:32;22.80;45.70
13928;DHT22;7036;50.834;4.718;2023-06-04T07:36:02;22.80;45.80
13928;DHT22;7036;50.834;4.718;2023-06-04T07:38:28;22.80;45.60
13928;DHT22;7036;50.834;4.718;2023-06-04T07:40:55;22.80;45.50
13928;DHT22;7036;50.834;4.718;2023-06-04T07:43:22;22.80;45.40
13928;DHT22;7036;50.834;4.718;2023-06-04T07:45:49;22.80;45.40
13928;DHT22;7036;50.834;4.718;2023-06-04T07:48:19;22.80;45.40
13928;DHT22;7036;50.834;4.718;2023-06-04T07:50:46;22.90;45.50
13928;DHT22;7036;50.834;4.718;2023-06-04T07:53:16;22.90;45.50
13928;DHT22;7036;50.834;4.718;2023-06-04T07:55:44;22.90;46.10
13928;DHT22;7036;50.834;4.718;2023-06-04T07:58:11;22.90;45.40
13928;DHT22;7036;50.834;4.718;2023-06-04T08:00:38;22.90;45.40
13928;DHT22;7036;50.834;4.718;2023-06-04T08:03:06;22.90;45.70
13928;DHT22;7036;50.834;4.718;2023-06-04T08:05:35;22.90;45.60
13928;DHT22;7036;50.834;4.718;2023-06-04T08:08:01;22.90;45.50
13928;DHT22;7036;50.834;4.718;2023-06-04T08:10:29;22.90;45.60
13928;DHT22;7036;50.834;4.718;2023-06-04T08:12:56;22.90;45.50
13928;DHT22;7036;50.834;4.718;2023-06-04T08:15:23;22.90;45.60
13928;DHT22;7036;50.834;4.718;2023-06-04T08:17:50;22.90;45.50
13928;DHT22;7036;50.834;4.718;2023-06-04T08:20:17;22.90;45.50
13928;DHT22;7036;50.834;4.718;2023-06-04T08:22:47;22.90;45.50
13928;DHT22;7036;50.834;4.718;2023-06-04T08:25:12;22.90;45.50
13928;DHT22;7036;50.834;4.718;2023-06-04T08:27:40;22.90;45.40
13928;DHT22;7036;50.834;4.718;2023-06-04T08:30:11;22.90;45.40
13928;DHT22;7036;50.834;4.718;2023-06-04T08:32:35;22.90;45.40
13928;DHT22;7036;50.834;4.718;2023-06-04T08:35:03;22.90;45.40
13928;DHT22;7036;50.834;4.718;2023-06-04T08:37:30;23.00;45.40
13928;DHT22;7036;50.834;4.718;2023-06-04T08:39:57;22.90;45.30
13928;DHT22;7036;50.834;4.718;2023-06-04T08:42:29;23.00;45.40
13928;DHT22;7036;50.834;4.718;2023-06-04T08:44:55;23.00;45.20
13928;DHT22;7036;50.834;4.718;2023-06-04T08:47:22;23.00;45.40
13928;DHT22;7036;50.834;4.718;2023-06-04T08:49:56;23.00;45.30
13928;DHT22;7036;50.834;4.718;2023-06-04T08:52:17;23.00;45.20
13928;DHT22;7036;50.834;4.718;2023-06-04T08:54:44;23.00;45.20
13928;DHT22;7036;50.834;4.718;2023-06-04T08:57:11;23.00;45.20
13928;DHT22;7036;50.834;4.718;2023-06-04T08:59:41;23.00;45.20
13928;DHT22;7036;50.834;4.718;2023-06-04T09:02:06;23.00;45.10
13928;DHT22;7036;50.834;4.718;2023-06-04T09:04:33;23.00;45.00
13928;DHT22;7036;50.834;4.718;2023-06-04T09:07:02;23.00;45.00
13928;DHT22;7036;50.834;4.718;2023-06-04T09:09:27;23.00;44.90
13928;DHT22;7036;50.834;4.718;2023-06-04T09:11:55;23.00;44.70
13928;DHT22;7036;50.834;4.718;2023-06-04T09:14:22;23.00;44.70
13928;DHT22;7036;50.834;4.718;2023-06-04T09:16:50;23.00;44.80
13928;DHT22;7036;50.834;4.718;2023-06-04T09:19:18;23.00;45.10
13928;DHT22;7036;50.834;4.718;2023-06-04T09:21:54;23.00;44.90
13928;DHT22;7036;50.834;4.718;2023-06-04T09:24:20;23.00;45.00
13928;DHT22;7036;50.834;4.718;2023-06-04T09:26:48;23.00;44.90
13928;DHT22;7036;50.834;4.718;2023-06-04T09:29:19;22.90;44.80
13928;DHT22;7036;50.834;4.718;2023-06-04T09:31:57;23.00;44.80
13928;DHT22;7036;50.834;4.718;2023-06-04T09:34:13;23.00;44.70
13928;DHT22;7036;50.834;4.718;2023-06-04T09:36:43;23.00;44.40
13928;DHT22;7036;50.834;4.718;2023-06-04T09:39:17;23.00;45.10
13928;DHT22;7036;50.834;4.718;2023-06-04T09:41:44;22.90;44.50
13928;DHT22;7036;50.834;4.718;2023-06-04T09:44:20;23.00;44.50
13928;DHT22;7036;50.834;4.718;2023-06-04T09:46:52;23.00;45.10
13928;DHT22;7036;50.834;4.718;2023-06-04T09:49:12;23.00;44.60
13928;DHT22;7036;50.834;4.718;2023-06-04T09:51:48;23.00;44.70
13928;DHT22;7036;50.834;4.718;2023-06-04T09:54:07;23.00;44.60
13928;DHT22;7036;50.834;4.718;2023-06-04T09:56:40;23.00;44.50
13928;DHT22;7036;50.834;4.718;2023-06-04T09:59:11;23.00;44.40
13928;DHT22;7036;50.834;4.718;2023-06-04T10:01:40;23.00;44.20
13928;DHT22;7036;50.834;4.718;2023-06-04T10:04:07;23.00;44.40
13928;DHT22;7036;50.834;4.718;2023-06-04T10:06:34;23.00;44.30
13928;DHT22;7036;50.834;4.718;2023-06-04T10:09:07;23.00;44.20
13928;DHT22;7036;50.834;4.718;2023-06-04T10:11:47;23.00;44.10
13928;DHT22;7036;50.834;4.718;2023-06-04T10:14:39;23.00;44.00
13928;DHT22;7036;50.834;4.718;2023-06-04T10:17:03;23.00;44.00
13928;DHT22;7036;50.834;4.718;2023-06-04T10:19:31;23.00;44.10
13928;DHT22;7036;50.834;4.718;2023-06-04T10:21:58;23.00;44.00
13928;DHT22;7036;50.834;4.718;2023-06-04T10:24:28;23.00;44.00
13928;DHT22;7036;50.834;4.718;2023-06-04T10:26:58;23.00;43.80
13928;DHT22;7036;50.834;4.718;2023-06-04T10:29:34;23.00;43.70
13928;DHT22;7036;50.834;4.718;2023-06-04T10:31:58;23.00;43.80
13928;DHT22;7036;50.834;4.718;2023-06-04T10:34:27;23.00;43.70
13928;DHT22;7036;50.834;4.718;2023-06-04T10:36:53;23.00;43.60
13928;DHT22;7036;50.834;4.718;2023-06-04T10:39:30;23.00;43.40
13928;DHT22;7036;50.834;4.718;2023-06-04T10:42:05;23.00;43.40
13928;DHT22;7036;50.834;4.718;2023-06-04T10:44:47;23.00;43.50
13928;DHT22;7036;50.834;4.718;2023-06-04T10:47:26;23.00;43.50
13928;DHT22;7036;50.834;4.718;2023-06-04T10:49:50;23.00;43.50
13928;DHT22;7036;50.834;4.718;2023-06-04T10:52:17;23.00;43.40
13928;DHT22;7036;50.834;4.718;2023-06-04T10:54:44;23.00;43.40
13928;DHT22;7036;50.834;4.718;2023-06-04T10:57:12;23.00;43.50
13928;DHT22;7036;50.834;4.718;2023-06-04T10:59:38;23.00;43.40
13928;DHT22;7036;50.834;4.718;2023-06-04T11:02:08;23.00;43.50
13928;DHT22;7036;50.834;4.718;2023-06-04T11:04:33;23.00;43.40
13928;DHT22;7036;50.834;4.718;2023-06-04T11:07:06;23.00;43.40
13928;DHT22;7036;50.834;4.718;2023-06-04T11:09:35;23.00;43.40
13928;DHT22;7036;50.834;4.718;2023-06-04T11:12:04;23.00;43.40
13928;DHT22;7036;50.834;4.718;2023-06-04T11:14:30;23.00;43.50
13928;DHT22;7036;50.834;4.718;2023-06-04T11:16:56;23.00;43.30
13928;DHT22;7036;50.834;4.718;2023-06-04T11:19:24;23.00;43.50
13928;DHT22;7036;50.834;4.718;2023-06-04T11:21:51;23.00;43.20
13928;DHT22;7036;50.834;4.718;2023-06-04T11:24:19;23.00;42.80
13928;DHT22;7036;50.834;4.718;2023-06-04T11:26:46;23.00;42.70
13928;DHT22;7036;50.834;4.718;2023-06-04T11:29:13;22.90;42.70
13928;DHT22;7036;50.834;4.718;2023-06-04T11:31:46;22.90;42.10
13928;DHT22;7036;50.834;4.718;2023-06-04T11:34:25;22.90;42.60
13928;DHT22;7036;50.834;4.718;2023-06-04T11:36:52;22.90;42.50
13928;DHT22;7036;50.834;4.718;2023-06-04T11:39:20;22.90;42.20
13928;DHT22;7036;50.834;4.718;2023-06-04T11:41:48;23.00;43.00
13928;DHT22;7036;50.834;4.718;2023-06-04T11:44:14;23.00;43.00
13928;DHT22;7036;50.834;4.718;2023-06-04T11:46:42;23.00;43.70
13928;DHT22;7036;50.834;4.718;2023-06-04T11:49:11;23.00;43.10
13928;DHT22;7036;50.834;4.718;2023-06-04T11:51:36;23.00;43.70
13928;DHT22;7036;50.834;4.718;2023-06-04T11:54:03;23.00;43.60
13928;DHT22;7036;50.834;4.718;2023-06-04T11:56:31;23.00;43.70
13928;DHT22;7036;50.834;4.718;2023-06-04T11:58:58;23.10;43.80
13928;DHT22;7036;50.834;4.718;2023-06-04T12:01:25;23.00;43.50
13928;DHT22;7036;50.834;4.718;2023-06-04T12:03:52;23.00;43.00
13928;DHT22;7036;50.834;4.718;2023-06-04T12:06:20;23.00;42.70
13928;DHT22;7036;50.834;4.718;2023-06-04T12:08:47;23.00;42.30
13928;DHT22;7036;50.834;4.718;2023-06-04T12:11:30;23.00;42.20
13928;DHT22;7036;50.834;4.718;2023-06-04T12:13:57;23.00;41.70
13928;DHT22;7036;50.834;4.718;2023-06-04T12:16:26;23.00;42.00
13928;DHT22;7036;50.834;4.718;2023-06-04T12:19:03;23.00;41.90
13928;DHT22;7036;50.834;4.718;2023-06-04T12:21:24;23.00;41.70
13928;DHT22;7036;50.834;4.718;2023-06-04T12:23:54;23.00;41.60
13928;DHT22;7036;50.834;4.718;2023-06-04T12:26:24;23.00;41.70
13928;DHT22;7036;50.834;4.718;2023-06-04T12:29:01;23.00;41.60
13928;DHT22;7036;50.834;4.718;2023-06-04T12:31:27;23.00;41.70
13928;DHT22;7036;50.834;4.718;2023-06-04T12:34:00;23.00;41.60
13928;DHT22;7036;50.834;4.718;2023-06-04T12:36:25;23.00;41.80
13928;DHT22;7036;50.834;4.718;2023-06-04T12:38:52;23.00;41.70
13928;DHT22;7036;50.834;4.718;2023-06-04T12:41:19;23.00;41.80
13928;DHT22;7036;50.834;4.718;2023-06-04T12:43:48;23.00;41.60
13928;DHT22;7036;50.834;4.718;2023-06-04T12:46:15;23.00;41.40
13928;DHT22;7036;50.834;4.718;2023-06-04T12:48:42;23.00;41.60
13928;DHT22;7036;50.834;4.718;2023-06-04T12:51:10;23.00;41.40
13928;DHT22;7036;50.834;4.718;2023-06-04T12:53:43;23.10;41.40
13928;DHT22;7036;50.834;4.718;2023-06-04T12:56:11;23.10;41.40
13928;DHT22;7036;50.834;4.718;2023-06-04T12:58:37;23.10;41.40
13928;DHT22;7036;50.834;4.718;2023-06-04T13:01:07;23.10;41.10
13928;DHT22;7036;50.834;4.718;2023-06-04T13:03:39;23.10;41.10
13928;DHT22;7036;50.834;4.718;2023-06-04T13:06:06;23.00;40.90
13928;DHT22;7036;50.834;4.718;2023-06-04T13:08:33;23.10;40.80
13928;DHT22;7036;50.834;4.718;2023-06-04T13:11:00;23.10;40.40
13928;DHT22;7036;50.834;4.718;2023-06-04T13:13:30;23.10;40.70
13928;DHT22;7036;50.834;4.718;2023-06-04T13:15:57;23.10;40.60
13928;DHT22;7036;50.834;4.718;2023-06-04T13:18:26;23.10;40.70
13928;DHT22;7036;50.834;4.718;2023-06-04T13:20:58;23.10;40.60
13928;DHT22;7036;50.834;4.718;2023-06-04T13:23:25;23.10;40.30
13928;DHT22;7036;50.834;4.718;2023-06-04T13:25:52;23.10;40.50
13928;DHT22;7036;50.834;4.718;2023-06-04T13:28:19;23.10;40.60
13928;DHT22;7036;50.834;4.718;2023-06-04T13:30:47;23.10;40.30
13928;DHT22;7036;50.834;4.718;2023-06-04T13:33:15;23.10;39.90
13928;DHT22;7036;50.834;4.718;2023-06-04T13:35:42;23.10;40.30
13928;DHT22;7036;50.834;4.718;2023-06-04T13:38:09;23.10;40.40
13928;DHT22;7036;50.834;4.718;2023-06-04T13:40:36;23.10;40.50
13928;DHT22;7036;50.834;4.718;2023-06-04T13:43:04;23.10;40.40
13928;DHT22;7036;50.834;4.718;2023-06-04T13:45:33;23.10;40.40
13928;DHT22;7036;50.834;4.718;2023-06-04T13:48:03;23.10;39.90
13928;DHT22;7036;50.834;4.718;2023-06-04T13:50:31;23.10;39.80
13928;DHT22;7036;50.834;4.718;2023-06-04T13:53:00;23.10;40.20
13928;DHT22;7036;50.834;4.718;2023-06-04T13:55:27;23.20;40.40
13928;DHT22;7036;50.834;4.718;2023-06-04T13:57:54;23.20;40.50
13928;DHT22;7036;50.834;4.718;2023-06-04T14:00:21;23.20;40.60
13928;DHT22;7036;50.834;4.718;2023-06-04T14:02:51;23.20;41.10
13928;DHT22;7036;50.834;4.718;2023-06-04T14:05:18;23.20;40.80
13928;DHT22;7036;50.834;4.718;2023-06-04T14:07:48;23.20;40.50
13928;DHT22;7036;50.834;4.718;2023-06-04T14:10:15;23.30;40.50
13928;DHT22;7036;50.834;4.718;2023-06-04T14:12:42;23.30;40.50
13928;DHT22;7036;50.834;4.718;2023-06-04T14:15:09;23.30;40.50
13928;DHT22;7036;50.834;4.718;2023-06-04T14:17:37;23.30;40.70
13928;DHT22;7036;50.834;4.718;2023-06-04T14:20:04;23.30;41.00
13928;DHT22;7036;50.834;4.718;2023-06-04T14:22:31;23.30;41.00
13928;DHT22;7036;50.834;4.718;2023-06-04T14:25:06;23.30;41.00
13928;DHT22;7036;50.834;4.718;2023-06-04T14:27:36;23.30;41.00
13928;DHT22;7036;50.834;4.718;2023-06-04T14:30:01;23.40;41.10
13928;DHT22;7036;50.834;4.718;2023-06-04T14:32:27;23.40;41.10
13928;DHT22;7036;50.834;4.718;2023-06-04T14:34:54;23.40;41.00
13928;DHT22;7036;50.834;4.718;2023-06-04T14:37:21;23.40;40.90
13928;DHT22;7036;50.834;4.718;2023-06-04T14:39:49;23.40;40.90
13928;DHT22;7036;50.834;4.718;2023-06-04T14:42:15;23.50;40.90
13928;DHT22;7036;50.834;4.718;2023-06-04T14:44:42;23.50;40.60
13928;DHT22;7036;50.834;4.718;2023-06-04T14:47:10;23.50;40.90
13928;DHT22;7036;50.834;4.718;2023-06-04T14:49:37;23.50;40.90
13928;DHT22;7036;50.834;4.718;2023-06-04T14:52:05;23.50;40.90
13928;DHT22;7036;50.834;4.718;2023-06-04T14:54:33;23.50;40.70
13928;DHT22;7036;50.834;4.718;2023-06-04T14:56:59;23.60;40.70
13928;DHT22;7036;50.834;4.718;2023-06-04T14:59:27;23.60;40.80
13928;DHT22;7036;50.834;4.718;2023-06-04T15:01:55;23.60;40.70
13928;DHT22;7036;50.834;4.718;2023-06-04T15:04:25;23.60;40.60
13928;DHT22;7036;50.834;4.718;2023-06-04T15:06:52;23.60;40.40
13928;DHT22;7036;50.834;4.718;2023-06-04T15:09:19;23.70;40.30
13928;DHT22;7036;50.834;4.718;2023-06-04T15:11:46;23.70;40.30
13928;DHT22;7036;50.834;4.718;2023-06-04T15:14:13;23.70;40.20
13928;DHT22;7036;50.834;4.718;2023-06-04T15:16:40;23.70;40.20
13928;DHT22;7036;50.834;4.718;2023-06-04T15:19:08;23.70;40.30
13928;DHT22;7036;50.834;4.718;2023-06-04T15:21:37;23.70;40.20
13928;DHT22;7036;50.834;4.718;2023-06-04T15:24:04;23.80;40.10
13928;DHT22;7036;50.834;4.718;2023-06-04T15:26:31;23.80;40.00
13928;DHT22;7036;50.834;4.718;2023-06-04T15:28:58;23.80;39.90
13928;DHT22;7036;50.834;4.718;2023-06-04T15:31:27;23.80;39.90
13928;DHT22;7036;50.834;4.718;2023-06-04T15:33:54;23.80;40.00
13928;DHT22;7036;50.834;4.718;2023-06-04T15:36:21;23.80;39.90
13928;DHT22;7036;50.834;4.718;2023-06-04T15:38:51;23.80;39.80
13928;DHT22;7036;50.834;4.718;2023-06-04T15:41:18;23.90;39.90
13928;DHT22;7036;50.834;4.718;2023-06-04T15:43:45;23.90;39.40
13928;DHT22;7036;50.834;4.718;2023-06-04T15:46:15;23.80;39.40
13928;DHT22;7036;50.834;4.718;2023-06-04T15:48:42;23.90;39.60
13928;DHT22;7036;50.834;4.718;2023-06-04T15:51:09;23.80;39.40
13928;DHT22;7036;50.834;4.718;2023-06-04T15:53:36;23.90;39.50